Time;durP1;ratioP1;P1;durP2;ratioP2;P2;SDS_P1;SDS_P2;PMS_P1;PMS_P2;Temp;Humidity;BMP_temperature;BMP_pressure;BME280_temperature;BME280_humidity;BME280_pressure;Samples;Min_cycle;Max_cycle;Signal;HPM_P1;HPM_P2
2022/10/08 00:00:59;;;;;;;2.80;2.17;;;;;;;;;;5073216;28;20212;-60
2022/10/08 00:03:27;;;;;;;5.00;2.28;;;;;;;;;;5072799;28;20612;-60
2022/10/08 00:05:58;;;;;;;9.60;2.28;;;;;;;;;;5073206;28;20223;-60
2022/10/08 00:08:25;;;;;;;5.03;2.13;;;;;;;;;;5073127;28;20208;-60
2022/10/08 00:10:53;;;;;;;4.85;2.35;;;;;;;;;;5073271;28;20197;-60
2022/10/08 00:13:20;;;;;;;5.40;2.03;;;;;;;;;;5073978;28;20256;-60
2022/10/08 00:15:49;;;;;;;7.13;3.45;;;;;;;;;;5073136;28;20227;-60
2022/10/08 00:18:16;;;;;;;5.15;2.00;;;;;;;;;;5073134;28;20205;-60
2022/10/08 00:20:43;;;;;;;3.83;2.30;;;;;;;;;;5073289;28;20201;-60
2022/10/08 00:23:10;;;;;;;4.68;2.15;;;;;;;;;;5073416;28;20225;-60
2022/10/08 00:25:40;;;;;;;5.80;2.00;;;;;;;;;;5074634;28;20661;-59
2022/10/08 00:28:07;;;;;;;4.80;2.22;;;;;;;;;;5077685;28;20197;-59
2022/10/08 00:30:36;;;;;;;6.03;2.45;;;;;;;;;;5077262;28;20220;-60
2022/10/08 00:33:04;;;;;;;7.78;3.35;;;;;;;;;;5077232;28;20229;-60
2022/10/08 00:35:31;;;;;;;6.82;2.45;;;;;;;;;;5077143;28;20224;-59
2022/10/08 00:37:58;;;;;;;11.45;2.40;;;;;;;;;;5077031;28;20200;-59
2022/10/08 00:40:25;;;;;;;6.28;3.30;;;;;;;;;;5076770;28;20213;-60
2022/10/08 00:42:53;;;;;;;6.25;4.10;;;;;;;;;;5076768;28;20220;-59
2022/10/08 00:45:20;;;;;;;4.50;2.58;;;;;;;;;;5076844;28;20193;-59
2022/10/08 00:47:48;;;;;;;4.63;2.22;;;;;;;;;;5076891;28;20208;-59
2022/10/08 00:50:19;;;;;;;6.20;2.30;;;;;;;;;;5076481;28;20201;-59
2022/10/08 00:52:47;;;;;;;2.75;1.90;;;;;;;;;;5076745;28;20225;-59
2022/10/08 00:55:15;;;;;;;5.95;2.20;;;;;;;;;;5076327;28;20217;-58
2022/10/08 00:57:43;;;;;;;7.88;2.35;;;;;;;;;;5076370;28;20197;-60
2022/10/08 01:00:11;;;;;;;5.50;2.22;;;;;;;;;;5076494;28;20209;-60
2022/10/08 01:02:38;;;;;;;10.52;1.80;;;;;;;;;;5075961;28;20229;-60
2022/10/08 01:05:06;;;;;;;4.50;2.55;;;;;;;;;;5076554;28;20197;-60
2022/10/08 01:07:38;;;;;;;6.50;2.55;;;;;;;;;;5076650;28;20201;-60
2022/10/08 01:10:08;;;;;;;10.02;3.38;;;;;;;;;;5077119;28;20193;-60
2022/10/08 01:12:40;;;;;;;7.68;2.67;;;;;;;;;;5076468;28;20221;-60
2022/10/08 01:15:12;;;;;;;4.85;2.50;;;;;;;;;;5076875;28;20630;-60
2022/10/08 01:17:43;;;;;;;3.45;2.00;;;;;;;;;;5076303;28;20213;-60
2022/10/08 01:20:22;;;;;;;8.63;2.50;;;;;;;;;;5076274;28;20196;-59
2022/10/08 01:23:09;;;;;;;7.50;2.00;;;;;;;;;;5076022;28;20216;-59
2022/10/08 01:25:40;;;;;;;8.30;4.00;;;;;;;;;;5076119;28;20204;-59
2022/10/08 01:28:16;;;;;;;14.00;2.50;;;;;;;;;;5075677;28;20196;-58
2022/10/08 01:30:47;;;;;;;3.88;2.63;;;;;;;;;;5075870;28;20596;-60
2022/10/08 01:33:15;;;;;;;8.23;2.65;;;;;;;;;;5076027;28;20221;-58
2022/10/08 01:35:44;;;;;;;5.00;2.35;;;;;;;;;;5075430;28;20224;-58
2022/10/08 01:38:14;;;;;;;15.50;3.47;;;;;;;;;;5074950;28;20208;-58
2022/10/08 01:40:42;;;;;;;5.35;2.60;;;;;;;;;;5075703;28;20212;-60
2022/10/08 01:43:11;;;;;;;8.25;2.30;;;;;;;;;;5075653;28;20217;-59
2022/10/08 01:45:41;;;;;;;8.77;2.08;;;;;;;;;;5075616;28;20208;-59
2022/10/08 01:48:13;;;;;;;4.88;1.98;;;;;;;;;;5075365;28;20216;-60
2022/10/08 01:50:43;;;;;;;3.58;2.15;;;;;;;;;;5075827;28;20268;-59
2022/10/08 01:53:13;;;;;;;4.43;2.05;;;;;;;;;;5075587;28;20221;-59
2022/10/08 01:55:41;;;;;;;4.82;2.00;;;;;;;;;;5075122;28;20213;-60
2022/10/08 01:58:10;;;;;;;5.05;2.47;;;;;;;;;;5076160;28;20201;-59
2022/10/08 02:00:39;;;;;;;6.75;2.42;;;;;;;;;;5075329;28;20224;-59
2022/10/08 02:03:10;;;;;;;3.28;2.03;;;;;;;;;;5124825;22;20223;-59
2022/10/08 02:05:38;;;;;;;6.82;3.05;;;;;;;;;;5116049;28;20275;-59
2022/10/08 02:08:05;;;;;;;4.85;1.85;;;;;;;;;;5115943;28;20207;-59
2022/10/08 02:10:32;;;;;;;8.45;2.35;;;;;;;;;;5115894;28;20196;-59
2022/10/08 02:12:59;;;;;;;6.63;2.47;;;;;;;;;;5115555;28;20223;-59
2022/10/08 02:15:32;;;;;;;6.20;2.40;;;;;;;;;;5115744;28;20590;-59
2022/10/08 02:18:05;;;;;;;2.75;2.30;;;;;;;;;;5115293;28;20184;-59
2022/10/08 02:20:36;;;;;;;5.65;2.40;;;;;;;;;;5115844;28;20185;-59
2022/10/08 02:23:06;;;;;;;6.43;2.42;;;;;;;;;;5115400;28;20710;-59
2022/10/08 02:25:34;;;;;;;4.72;2.70;;;;;;;;;;5115585;28;20212;-59
2022/10/08 02:28:05;;;;;;;7.75;2.17;;;;;;;;;;5115975;28;20204;-59
2022/10/08 02:30:37;;;;;;;5.35;2.25;;;;;;;;;;5115571;28;20188;-59
2022/10/08 02:33:06;;;;;;;4.65;2.20;;;;;;;;;;5115348;28;20223;-59
2022/10/08 02:35:38;;;;;;;9.05;2.95;;;;;;;;;;5115088;28;20334;-59
2022/10/08 02:38:07;;;;;;;5.93;2.30;;;;;;;;;;5115514;28;20222;-59
2022/10/08 02:40:37;;;;;;;6.05;2.03;;;;;;;;;;5115338;28;20199;-59
2022/10/08 02:43:05;;;;;;;5.28;2.35;;;;;;;;;;5115352;28;20219;-59
2022/10/08 02:45:34;;;;;;;5.10;2.70;;;;;;;;;;5115009;28;20202;-59
2022/10/08 02:48:03;;;;;;;5.88;2.60;;;;;;;;;;5115023;28;20222;-59
2022/10/08 02:50:31;;;;;;;7.78;2.72;;;;;;;;;;5114336;28;20233;-59
2022/10/08 02:52:59;;;;;;;8.80;2.60;;;;;;;;;;5114918;28;20592;-59
2022/10/08 02:55:29;;;;;;;7.72;2.70;;;;;;;;;;5114982;28;20222;-59
2022/10/08 02:57:59;;;;;;;8.20;2.45;;;;;;;;;;5115319;28;20207;-59
2022/10/08 03:00:26;;;;;;;9.05;2.75;;;;;;;;;;5114691;28;20675;-59
2022/10/08 03:02:57;;;;;;;8.23;3.00;;;;;;;;;;5114491;28;20263;-59
2022/10/08 03:05:25;;;;;;;6.05;2.45;;;;;;;;;;5114905;28;20188;-59
2022/10/08 03:07:54;;;;;;;6.10;2.10;;;;;;;;;;5114931;28;20202;-59
2022/10/08 03:10:24;;;;;;;9.55;2.60;;;;;;;;;;5114768;28;20207;-59
2022/10/08 03:12:52;;;;;;;8.55;2.72;;;;;;;;;;5115071;28;20219;-59
2022/10/08 03:15:19;;;;;;;9.82;2.33;;;;;;;;;;5114983;28;20207;-58
2022/10/08 03:17:47;;;;;;;4.35;3.10;;;;;;;;;;5114866;28;20664;-59
2022/10/08 03:20:15;;;;;;;7.70;2.30;;;;;;;;;;5114460;28;20594;-58
2022/10/08 03:22:42;;;;;;;4.63;2.42;;;;;;;;;;5114696;28;20215;-59
2022/10/08 03:25:09;;;;;;;5.60;2.85;;;;;;;;;;5114593;28;20200;-59
2022/10/08 03:27:37;;;;;;;5.95;2.50;;;;;;;;;;5114765;28;20227;-59
2022/10/08 03:30:05;;;;;;;6.63;2.60;;;;;;;;;;5114322;28;20199;-59
2022/10/08 03:32:32;;;;;;;6.60;2.63;;;;;;;;;;5114300;28;20223;-59
2022/10/08 03:34:59;;;;;;;7.32;2.65;;;;;;;;;;5114165;28;20203;-59
2022/10/08 03:37:26;;;;;;;10.67;2.50;;;;;;;;;;5114459;28;20564;-59
2022/10/08 03:39:53;;;;;;;5.80;2.37;;;;;;;;;;5114982;28;20438;-59
2022/10/08 03:42:20;;;;;;;5.83;2.13;;;;;;;;;;5115112;28;20465;-60
2022/10/08 03:44:48;;;;;;;4.95;2.50;;;;;;;;;;5114446;28;20453;-59
2022/10/08 03:47:15;;;;;;;6.30;2.73;;;;;;;;;;5114414;28;20191;-59
2022/10/08 03:49:42;;;;;;;8.88;2.80;;;;;;;;;;5114418;28;20440;-60
2022/10/08 03:52:09;;;;;;;7.53;2.15;;;;;;;;;;5113936;28;20223;-59
2022/10/08 03:54:37;;;;;;;7.10;1.93;;;;;;;;;;5114664;28;20200;-60
2022/10/08 03:57:04;;;;;;;6.20;2.70;;;9.60;99.90;;;;;;5115223;28;20472;-59
2022/10/08 03:59:31;;;;;;;7.93;2.97;;;11.10;99.90;;;;;;5114958;28;20446;-59
2022/10/08 04:01:59;;;;;;;8.20;2.40;;;11.10;99.90;;;;;;5113574;28;20477;-59
2022/10/08 04:04:26;;;;;;;4.97;2.20;;;11.10;99.90;;;;;;5114285;28;20453;-59
2022/10/08 04:10:21;;;;;;;6.50;2.60;;;11.10;99.90;;;;;;5091054;27;20545;-60
2022/10/08 04:12:48;;;;;;;5.07;2.40;;;11.10;99.90;;;;;;5090940;28;20458;-61
2022/10/08 04:15:14;;;;;;;7.63;3.03;;;11.10;99.90;;;;;;5090964;28;20956;-60
2022/10/08 04:17:41;;;;;;;11.33;2.70;;;11.20;99.90;;;;;;5091008;28;20446;-60
2022/10/08 04:20:09;;;;;;;5.50;2.13;;;11.20;99.90;;;;;;5091516;28;20446;-61
2022/10/08 04:22:36;;;;;;;6.90;2.53;;;11.30;99.90;;;;;;5091291;28;20565;-59
2022/10/08 04:25:03;;;;;;;4.00;2.10;;;11.30;99.90;;;;;;5090494;28;20442;-60
2022/10/08 04:27:31;;;;;;;4.93;2.83;;;11.30;99.90;;;;;;5090153;28;20449;-61
2022/10/08 04:29:58;;;;;;;8.83;3.40;;;11.40;99.90;;;;;;5090434;28;20501;-60
2022/10/08 04:32:24;;;;;;;6.50;2.70;;;11.40;99.90;;;;;;5091108;28;20470;-60
2022/10/08 04:34:51;;;;;;;7.43;2.53;;;11.40;99.90;;;;;;5091021;28;20439;-60
2022/10/08 04:37:19;;;;;;;8.00;2.60;;;11.50;99.90;;;;;;5091791;28;20451;-62
2022/10/08 04:39:45;;;;;;;7.10;2.63;;;11.50;99.90;;;;;;5091625;28;20439;-60
2022/10/08 04:42:12;;;;;;;3.40;2.83;;;11.50;99.90;;;;;;5091465;28;20462;-60
2022/10/08 04:44:40;;;;;;;9.10;2.87;;;11.50;99.90;;;;;;5092507;28;20442;-60
2022/10/08 04:47:07;;;;;;;6.80;3.13;;;11.50;99.90;;;;;;5092213;28;20439;-60
2022/10/08 04:49:34;;;;;;;8.33;3.20;;;11.50;99.90;;;;;;5091708;28;20911;-60
2022/10/08 04:52:00;;;;;;;7.80;3.13;;;11.50;99.90;;;;;;5091404;28;20828;-59
2022/10/08 04:54:27;;;;;;;7.27;3.00;;;11.50;99.90;;;;;;5091944;28;20446;-59
2022/10/08 04:56:54;;;;;;;10.73;3.30;;;11.50;99.90;;;;;;5091660;28;20442;-59
2022/10/08 04:59:21;;;;;;;10.87;3.60;;;11.50;99.90;;;;;;5090991;28;20521;-59
2022/10/08 05:01:49;;;;;;;6.13;3.50;;;11.40;99.90;;;;;;5090128;28;20458;-59
2022/10/08 05:04:16;;;;;;;13.23;3.83;;;11.40;99.90;;;;;;5090323;28;20450;-60
2022/10/08 05:06:42;;;;;;;8.50;3.80;;;11.40;99.90;;;;;;5090124;28;20454;-59
2022/10/08 05:09:09;;;;;;;10.47;3.90;;;11.40;99.90;;;;;;5089536;28;20604;-60
2022/10/08 05:11:36;;;;;;;11.70;4.10;;;11.50;99.90;;;;;;5090057;28;20442;-60
2022/10/08 05:14:03;;;;;;;9.30;3.83;;;11.50;99.90;;;;;;5090003;28;20440;-59
2022/10/08 05:16:29;;;;;;;9.17;3.80;;;11.50;99.90;;;;;;5090140;28;20454;-59
2022/10/08 05:18:58;;;;;;;11.53;4.40;;;11.40;99.90;;;;;;5089644;28;20450;-60
2022/10/08 05:21:28;;;;;;;8.40;4.37;;;11.40;99.90;;;;;;5078327;28;20450;-60
2022/10/08 05:23:57;;;;;;;8.97;4.90;;;11.40;99.90;;;;;;5076845;28;20471;-61
2022/10/08 05:26:26;;;;;;;11.37;5.10;;;11.40;99.90;;;;;;5076684;28;20816;-60
2022/10/08 05:28:55;;;;;;;9.37;4.93;;;11.40;99.90;;;;;;5075838;28;20478;-60
2022/10/08 05:31:23;;;;;;;12.33;5.37;;;11.50;99.90;;;;;;5075824;28;20524;-60
2022/10/08 05:33:50;;;;;;;17.63;5.70;;;11.50;99.90;;;;;;5075752;28;20829;-60
2022/10/08 05:36:20;;;;;;;11.00;6.07;;;11.60;99.90;;;;;;5076699;28;20447;-60
2022/10/08 05:38:47;;;;;;;13.17;5.83;;;11.60;99.90;;;;;;5075990;28;20439;-60
2022/10/08 05:41:16;;;;;;;10.83;5.80;;;11.70;99.90;;;;;;5076746;28;20450;-59
2022/10/08 05:43:43;;;;;;;12.47;6.20;;;11.70;99.90;;;;;;5070591;28;20471;-59
2022/10/08 05:46:11;;;;;;;14.83;5.80;;;11.80;99.90;;;;;;5059200;28;20455;-60
2022/10/08 05:48:38;;;;;;;12.90;5.33;;;11.80;99.90;;;;;;5072666;28;20447;-60
2022/10/08 05:51:06;;;;;;;14.33;6.63;;;11.90;99.90;;;;;;5074747;28;20448;-60
2022/10/08 05:53:36;;;;;;;13.93;5.57;;;11.90;99.90;;;;;;5076201;28;20459;-60
2022/10/08 05:56:04;;;;;;;15.60;5.53;;;12.00;99.90;;;;;;5070858;28;20479;-59
2022/10/08 05:58:32;;;;;;;19.80;7.70;;;12.00;99.90;;;;;;5055706;28;20428;-60
2022/10/08 06:01:00;;;;;;;11.47;6.33;;;12.00;99.90;;;;;;5055359;28;20453;-60
2022/10/08 06:03:27;;;;;;;11.07;6.13;;;11.90;99.90;;;;;;5055365;28;20464;-60
2022/10/08 06:05:54;;;;;;;15.10;7.00;;;11.80;99.90;;;;;;5058241;28;20458;-60
2022/10/08 06:08:21;;;;;;;13.20;7.07;;;11.70;99.90;;;;;;5075529;28;20475;-60
2022/10/08 06:10:50;;;;;;;14.73;7.53;;;11.60;99.90;;;;;;5075282;28;20467;-60
2022/10/08 06:13:17;;;;;;;12.83;7.60;;;11.50;99.90;;;;;;5075315;28;20473;-60
2022/10/08 06:15:53;;;;;;;11.47;7.90;;;11.50;99.90;;;;;;5073330;28;20458;-61
2022/10/08 06:18:20;;;;;;;14.10;8.30;;;11.50;99.90;;;;;;5076091;28;20485;-61
2022/10/08 06:20:47;;;;;;;17.10;7.73;;;11.50;99.90;;;;;;5075424;28;20437;-60
2022/10/08 06:23:14;;;;;;;16.90;10.10;;;11.50;99.90;;;;;;5075534;28;20506;-62
2022/10/08 06:25:41;;;;;;;12.80;9.20;;;11.50;99.90;;;;;;5075434;28;20435;-60
2022/10/08 06:28:09;;;;;;;12.07;7.83;;;11.60;99.90;;;;;;5072243;28;20448;-61
2022/10/08 06:30:35;;;;;;;17.93;9.50;;;11.60;99.90;;;;;;5056090;28;20487;-57
2022/10/08 06:33:02;;;;;;;12.00;7.97;;;11.70;99.90;;;;;;5055663;28;20834;-58
2022/10/08 06:35:30;;;;;;;18.80;9.00;;;11.70;99.90;;;;;;5055364;28;20452;-55
2022/10/08 06:37:57;;;;;;;17.43;10.20;;;11.80;99.90;;;;;;5056459;28;20444;-57
2022/10/08 06:40:23;;;;;;;16.57;10.37;;;11.80;99.90;;;;;;5056485;28;20448;-57
2022/10/08 06:42:51;;;;;;;20.73;10.80;;;11.80;99.90;;;;;;5056113;28;20838;-57
2022/10/08 06:45:19;;;;;;;14.00;10.40;;;11.90;99.90;;;;;;5060170;28;20439;-57
2022/10/08 06:47:45;;;;;;;14.70;10.57;;;12.00;99.90;;;;;;5063728;28;20467;-60
2022/10/08 06:50:12;;;;;;;14.70;10.80;;;12.00;99.90;;;;;;5058966;28;20839;-57
2022/10/08 06:52:39;;;;;;;18.20;10.90;;;12.10;99.90;;;;;;5062186;28;20557;-57
2022/10/08 06:55:06;;;;;;;13.67;10.00;;;12.10;99.90;;;;;;5074930;28;20955;-59
2022/10/08 06:57:33;;;;;;;12.77;10.10;;;12.10;99.90;;;;;;5057650;28;20529;-57
2022/10/08 07:00:00;;;;;;;18.97;10.83;;;12.10;99.90;;;;;;5057367;28;20463;-57
2022/10/08 07:02:28;;;;;;;11.77;10.57;;;12.10;99.90;;;;;;5070858;28;20487;-57
2022/10/08 07:04:55;;;;;;;12.80;8.97;;;12.10;99.90;;;;;;5064681;28;20473;-57
2022/10/08 07:07:22;;;;;;;16.17;9.30;;;12.10;99.90;;;;;;5077476;28;20453;-57
2022/10/08 07:09:48;;;;;;;15.77;10.13;;;12.10;99.90;;;;;;5060552;28;20484;-58
2022/10/08 07:12:15;;;;;;;20.80;10.33;;;12.20;99.90;;;;;;5055762;28;20471;-57
2022/10/08 07:14:42;;;;;;;11.70;9.23;;;12.20;99.90;;;;;;5055579;28;20821;-56
2022/10/08 07:17:09;;;;;;;10.47;8.50;;;12.30;99.90;;;;;;5055048;28;20436;-57
2022/10/08 07:19:37;;;;;;;14.70;9.00;;;12.40;99.90;;;;;;5056228;28;20444;-56
2022/10/08 07:22:04;;;;;;;10.63;7.50;;;12.40;99.90;;;;;;5065554;28;20464;-58
2022/10/08 07:24:31;;;;;;;10.87;8.60;;;12.50;99.90;;;;;;5063300;28;20489;-56
2022/10/08 07:26:58;;;;;;;15.40;8.67;;;12.50;99.90;;;;;;5059416;28;20932;-58
2022/10/08 07:29:25;;;;;;;14.30;9.53;;;12.50;99.90;;;;;;5059809;28;20477;-57
2022/10/08 07:31:52;;;;;;;14.57;7.50;;;12.50;99.90;;;;;;5074616;28;20478;-57
2022/10/08 07:34:19;;;;;;;15.20;8.30;;;12.50;99.90;;;;;;5075780;28;20476;-57
2022/10/08 07:36:47;;;;;;;10.57;7.57;;;12.60;99.90;;;;;;5075280;28;20449;-58
2022/10/08 07:39:18;;;;;;;12.10;8.47;;;12.60;99.90;;;;;;5069547;28;20446;-58
2022/10/08 07:41:45;;;;;;;11.27;7.53;;;12.60;99.90;;;;;;5061219;28;20435;-57
2022/10/08 07:44:13;;;;;;;9.67;7.37;;;12.80;99.90;;;;;;5053847;28;20448;-58
2022/10/08 07:46:43;;;;;;;11.53;7.60;;;12.90;99.90;;;;;;5066791;28;20538;-57
2022/10/08 07:49:10;;;;;;;9.37;7.53;;;13.00;99.90;;;;;;5054586;28;20451;-57
2022/10/08 07:51:37;;;;;;;9.57;6.20;;;13.10;99.90;;;;;;5063527;28;20439;-57
2022/10/08 07:54:07;;;;;;;8.27;5.87;;;13.00;99.90;;;;;;5073620;28;20517;-57
2022/10/08 07:56:35;;;;;;;7.17;5.80;;;13.00;99.90;;;;;;5067797;28;20444;-56
2022/10/08 07:59:02;;;;;;;11.13;5.77;;;12.90;99.90;;;;;;5054485;28;20453;-58
2022/10/08 08:01:30;;;;;;;10.63;6.30;;;12.90;99.90;;;;;;5067971;28;20526;-57
2022/10/08 08:03:58;;;;;;;11.20;5.80;;;12.80;99.90;;;;;;5074920;28;20463;-57
2022/10/08 08:06:26;;;;;;;10.17;6.27;;;12.80;99.90;;;;;;5081469;22;20499;-58
2022/10/08 08:08:54;;;;;;;9.57;6.70;;;12.80;99.90;;;;;;5053411;28;20815;-57
2022/10/08 08:11:23;;;;;;;8.40;5.57;;;12.80;99.90;;;;;;5052979;28;20476;-56
2022/10/08 08:13:51;;;;;;;9.00;6.00;;;12.80;99.90;;;;;;5053255;28;20543;-57
2022/10/08 08:16:20;;;;;;;7.90;5.90;;;12.80;99.90;;;;;;5048713;28;20476;-58
2022/10/08 08:18:49;;;;;;;6.37;5.00;;;12.80;99.90;;;;;;5032935;28;20453;-57
2022/10/08 08:21:17;;;;;;;16.03;5.30;;;12.80;99.90;;;;;;5033194;28;20445;-57
2022/10/08 08:23:46;;;;;;;5.70;5.10;;;12.90;99.90;;;;;;5032601;28;21016;-59
2022/10/08 08:26:14;;;;;;;6.07;4.20;;;12.90;99.90;;;;;;5032991;28;20468;-57
2022/10/08 08:28:42;;;;;;;13.60;5.50;;;12.80;99.90;;;;;;5033005;28;20464;-56
2022/10/08 08:31:10;;;;;;;6.33;4.63;;;12.80;99.90;;;;;;5015627;28;20985;-56
2022/10/08 08:33:37;;;;;;;10.27;5.30;;;12.90;99.90;;;;;;5022434;28;20453;-57
2022/10/08 08:36:04;;;;;;;9.57;4.57;;;13.10;99.90;;;;;;5032799;28;20955;-57
2022/10/08 08:38:31;;;;;;;7.17;5.00;;;13.20;99.90;;;;;;5034388;28;20459;-58
2022/10/08 08:41:08;;;;;;;8.70;4.93;;;13.40;99.90;;;;;;5032719;28;20448;-56
2022/10/08 08:43:35;;;;;;;10.47;4.90;;;13.50;99.90;;;;;;5034175;28;20448;-59
2022/10/08 08:46:04;;;;;;;8.13;5.03;;;13.60;99.90;;;;;;5032532;28;20449;-60
2022/10/08 08:48:35;;;;;;;5.40;4.67;;;13.80;99.90;;;;;;5032884;28;20454;-58
2022/10/08 08:51:03;;;;;;;5.83;4.50;;;14.00;99.90;;;;;;5013688;28;20509;-59
2022/10/08 08:53:30;;;;;;;6.17;4.90;;;14.20;99.90;;;;;;5013472;28;20456;-60
2022/10/08 08:56:00;;;;;;;10.70;4.47;;;14.30;99.90;;;;;;5014517;28;21014;-58
2022/10/08 08:58:34;;;;;;;5.40;4.90;;;14.40;99.90;;;;;;5016209;28;20892;-59
2022/10/08 09:01:13;;;;;;;9.60;5.30;;;14.30;99.90;;;;;;5017756;28;21009;-59
2022/10/08 09:03:43;;;;;;;6.70;4.43;;;14.20;99.90;;;;;;5017479;28;20434;-60
2022/10/08 09:06:14;;;;;;;7.50;3.90;;;14.10;99.90;;;;;;5017678;28;20933;-60
2022/10/08 09:08:45;;;;;;;6.37;4.80;;;14.00;99.90;;;;;;5016768;28;20430;-58
2022/10/08 09:11:14;;;;;;;7.20;4.57;;;14.10;99.90;;;;;;5016561;28;20477;-58
2022/10/08 09:13:47;;;;;;;7.57;3.90;;;14.20;99.90;;;;;;5016483;28;20992;-59
2022/10/08 09:16:18;;;;;;;6.40;4.20;;;14.30;99.90;;;;;;5016563;28;20522;-59
2022/10/08 09:18:46;;;;;;;6.83;4.00;;;14.50;99.90;;;;;;5016394;28;20486;-59
2022/10/08 09:21:13;;;;;;;6.00;4.57;;;14.60;99.90;;;;;;5016557;28;20810;-59
2022/10/08 09:23:40;;;;;;;10.10;4.70;;;14.60;99.90;;;;;;5017174;28;20450;-58
2022/10/08 09:26:15;;;;;;;6.20;4.03;;;14.60;99.90;;;;;;5016032;28;20973;-60
2022/10/08 09:28:44;;;;;;;5.30;4.10;;;14.50;99.90;;;;;;5016544;28;20430;-60
2022/10/08 09:31:25;;;;;;;7.23;4.00;;;14.50;99.90;;;;;;5015995;28;20527;-59
2022/10/08 09:34:16;;;;;;;6.00;3.57;;;14.60;99.90;;;;;;5016513;28;20435;-59
2022/10/08 09:36:46;;;;;;;5.93;3.70;;;14.80;99.90;;;;;;5016206;28;20548;-59
2022/10/08 09:39:18;;;;;;;9.60;3.20;;;15.00;99.90;;;;;;5016400;28;20457;-60
2022/10/08 09:41:47;;;;;;;5.07;2.63;;;15.10;99.90;;;;;;5016982;28;20442;-60
2022/10/08 09:44:17;;;;;;;6.50;3.30;;;15.20;99.90;;;;;;5015207;28;20545;-61
2022/10/08 09:46:47;;;;;;;3.80;2.73;;;15.40;99.90;;;;;;5016419;28;20462;-61
2022/10/08 09:49:26;;;;;;;6.30;3.07;;;15.60;99.20;;;;;;5016042;28;20851;-61
2022/10/08 09:51:53;;;;;;;5.07;2.90;;;15.50;97.00;;;;;;5015964;28;20473;-61
2022/10/08 09:54:23;;;;;;;9.13;3.03;;;15.30;96.90;;;;;;5015989;28;20449;-60
2022/10/08 09:56:53;;;;;;;4.50;3.30;;;15.10;97.20;;;;;;5016100;28;20477;-61
2022/10/08 09:59:22;;;;;;;7.80;3.50;;;15.00;97.50;;;;;;5016032;28;20545;-61
2022/10/08 10:01:51;;;;;;;7.77;2.90;;;14.90;97.90;;;;;;5015892;28;20481;-61
2022/10/08 10:04:22;;;;;;;8.37;3.67;;;15.00;98.10;;;;;;5016014;28;20438;-61
2022/10/08 10:06:53;;;;;;;6.30;3.37;;;15.10;97.90;;;;;;5015612;28;20466;-62
2022/10/08 10:09:28;;;;;;;6.57;2.60;;;15.20;97.70;;;;;;5015336;28;20437;-61
2022/10/08 10:12:01;;;;;;;7.47;3.13;;;15.40;97.00;;;;;;5015481;28;20876;-62
2022/10/08 10:14:38;;;;;;;8.80;2.80;;;15.30;96.30;;;;;;5015405;28;20774;-59
2022/10/08 10:17:17;;;;;;;8.30;3.00;;;15.30;96.60;;;;;;5015499;28;20519;-61
2022/10/08 10:19:49;;;;;;;4.47;2.93;;;15.50;96.00;;;;;;5015652;28;20434;-61
2022/10/08 10:22:20;;;;;;;3.93;2.60;;;15.80;95.10;;;;;;5015565;28;20456;-61
2022/10/08 10:24:56;;;;;;;10.80;3.20;;;15.90;94.30;;;;;;5016242;28;20431;-60
2022/10/08 10:27:49;;;;;;;9.10;3.07;;;16.00;93.20;;;;;;5015758;28;20470;-62
2022/10/08 10:30:19;;;;;;;4.80;2.77;;;16.00;93.40;;;;;;5008040;28;20489;-61
2022/10/08 10:32:52;;;;;;;5.70;2.43;;;16.00;93.20;;;;;;5015123;28;20445;-62
2022/10/08 10:35:24;;;;;;;5.83;3.30;;;16.10;92.20;;;;;;5014868;28;20442;-61
2022/10/08 10:37:57;;;;;;;6.10;2.50;;;16.10;91.80;;;;;;5014707;28;20462;-61
2022/10/08 10:40:35;;;;;;;6.33;3.17;;;16.00;91.70;;;;;;5015008;28;20436;-61
2022/10/08 10:43:31;;;;;;;4.87;2.30;;;16.00;91.70;;;;;;5015032;28;20798;-61
2022/10/08 10:46:06;;;;;;;3.50;2.70;;;16.20;91.40;;;;;;5014178;28;20521;-61
2022/10/08 10:48:34;;;;;;;6.90;2.70;;;16.20;90.70;;;;;;5014606;28;20430;-61
2022/10/08 10:51:14;;;;;;;7.00;2.90;;;16.10;90.50;;;;;;5014544;28;20478;-61
2022/10/08 10:53:53;;;;;;;11.47;3.07;;;16.00;90.60;;;;;;5015486;28;20434;-61
2022/10/08 10:56:21;;;;;;;4.70;3.20;;;15.80;90.60;;;;;;5014801;28;20486;-62
2022/10/08 10:59:07;;;;;;;4.30;2.13;;;15.70;90.90;;;;;;5017078;28;20454;-61
2022/10/08 11:01:42;;;;;;;8.10;2.40;;;15.60;91.00;;;;;;5015771;28;20437;-60
2022/10/08 11:04:17;;;;;;;7.00;2.43;;;15.60;91.00;;;;;;5015838;28;20430;-61
2022/10/08 11:07:04;;;;;;;7.43;3.00;;;15.60;91.10;;;;;;5015838;28;20499;-61
2022/10/08 11:09:46;;;;;;;4.70;2.10;;;15.60;91.10;;;;;;5014890;28;20430;-61
2022/10/08 11:12:25;;;;;;;3.90;2.00;;;15.60;91.20;;;;;;5014551;28;20999;-61
2022/10/08 11:15:01;;;;;;;3.47;2.10;;;15.60;91.20;;;;;;5014979;28;20783;-61
2022/10/08 11:20:50;;;;;;;4.50;2.90;;;15.40;91.60;;;;;;5010853;28;20509;-62
2022/10/08 11:23:29;;;;;;;7.63;2.90;;;15.30;92.80;;;;;;5014211;28;20418;-61
2022/10/08 11:26:00;;;;;;;7.93;3.57;;;15.40;93.30;;;;;;5014071;28;20430;-62
2022/10/08 11:28:36;;;;;;;6.43;3.03;;;15.50;93.30;;;;;;5014096;28;20933;-62
2022/10/08 11:31:12;;;;;;;4.97;2.20;;;15.60;93.80;;;;;;5014514;28;20533;-60
2022/10/08 11:33:40;;;;;;;3.90;2.40;;;15.60;93.90;;;;;;5013910;28;20433;-61
2022/10/08 11:36:22;;;;;;;6.20;2.30;;;15.60;93.50;;;;;;5014095;28;20449;-61
2022/10/08 11:38:56;;;;;;;6.03;2.37;;;15.30;93.50;;;;;;5017350;28;20810;-60
2022/10/08 11:41:29;;;;;;;3.23;2.33;;;15.10;93.70;;;;;;5015483;28;20855;-61
2022/10/08 11:44:00;;;;;;;4.27;2.30;;;14.70;93.70;;;;;;5016468;28;20438;-62
2022/10/08 11:46:35;;;;;;;9.57;2.87;;;14.10;96.10;;;;;;5018529;28;20466;-63
2022/10/08 11:49:03;;;;;;;5.10;2.83;;;13.50;99.30;;;;;;5016543;28;20465;-62
2022/10/08 11:51:37;;;;;;;6.17;3.60;;;13.00;99.90;;;;;;5013827;28;21005;-63
2022/10/08 11:54:15;;;;;;;3.03;2.23;;;12.70;99.90;;;;;;5017265;28;21012;-62
2022/10/08 11:56:44;;;;;;;4.27;1.87;;;12.50;99.90;;;;;;5014136;28;21004;-63
2022/10/08 11:59:35;;;;;;;5.23;2.10;;;12.30;99.90;;;;;;5014131;28;20457;-62
2022/10/08 12:02:05;;;;;;;3.27;2.00;;;12.10;99.90;;;;;;5014064;28;20418;-62
2022/10/08 12:04:34;;;;;;;11.03;2.73;;;11.90;99.90;;;;;;5013388;28;20934;-63
2022/10/08 12:07:19;;;;;;;2.80;1.50;;;12.00;99.90;;;;;;5013695;28;20478;-64
2022/10/08 12:10:23;;;;;;;2.97;1.87;;;12.10;99.90;;;;;;5013420;28;20933;-62
2022/10/08 12:13:25;;;;;;;4.97;1.33;;;12.00;99.90;;;;;;5014118;28;20449;-63
2022/10/08 12:16:16;;;;;;;7.83;1.87;;;11.90;99.90;;;;;;5016473;28;20429;-59
2022/10/08 12:18:44;;;;;;;3.37;1.90;;;11.70;99.90;;;;;;5014001;28;20426;-63
2022/10/08 12:21:53;;;;;;;3.57;1.60;;;11.70;99.90;;;;;;5013509;28;20492;-62
2022/10/08 12:24:52;;;;;;;1.93;1.40;;;11.60;99.90;;;;;;5013673;28;20426;-63
2022/10/08 12:27:30;;;;;;;2.47;1.57;;;11.70;99.90;;;;;;5013392;28;20462;-63
2022/10/08 12:30:00;;;;;;;3.63;1.50;;;11.60;99.90;;;;;;5013603;28;20441;-62
2022/10/08 12:32:28;;;;;;;3.27;1.70;;;11.60;99.90;;;;;;5017152;28;20489;-61
2022/10/08 12:34:56;;;;;;;3.27;2.00;;;11.60;99.90;;;;;;5017189;28;20450;-63
2022/10/08 12:38:03;;;;;;;2.30;2.07;;;11.70;99.90;;;;;;5016762;28;21057;-62
2022/10/08 12:40:36;;;;;;;5.23;2.50;;;11.80;99.90;;;;;;4976365;28;20859;-61
2022/10/08 12:43:43;;;;;;;5.20;2.40;;;12.00;99.90;;;;;;5012097;28;20925;-62
2022/10/08 12:46:20;;;;;;;3.57;1.57;;;12.10;99.90;;;;;;5006649;28;20468;-61
2022/10/08 12:48:51;;;;;;;4.33;2.00;;;12.40;99.90;;;;;;5017075;28;20426;-61
2022/10/08 12:51:29;;;;;;;1.60;1.50;;;12.40;99.90;;;;;;5016070;28;20466;-61
2022/10/08 12:53:57;;;;;;;3.73;1.97;;;12.50;99.90;;;;;;5016947;28;20862;-61
2022/10/08 12:56:27;;;;;;;3.50;1.60;;;12.70;99.90;;;;;;5016310;28;20860;-61
2022/10/08 12:58:56;;;;;;;3.33;1.53;;;12.80;99.90;;;;;;5016424;28;20445;-62
2022/10/08 13:01:24;;;;;;;3.63;1.70;;;12.90;99.90;;;;;;5016125;28;20442;-61
2022/10/08 13:04:09;;;;;;;4.63;1.80;;;13.10;99.90;;;;;;5015959;28;20457;-63
2022/10/08 13:06:36;;;;;;;7.03;1.97;;;13.10;99.90;;;;;;5016203;28;20473;-61
2022/10/08 13:09:13;;;;;;;2.23;1.40;;;13.20;99.90;;;;;;5016023;28;20945;-60
2022/10/08 13:11:42;;;;;;;3.13;1.97;;;13.30;99.90;;;;;;5016226;28;20472;-60
2022/10/08 13:14:23;;;;;;;3.50;1.53;;;13.30;99.90;;;;;;5015911;28;20445;-60
2022/10/08 13:16:50;;;;;;;2.50;1.90;;;13.40;99.90;;;;;;5016551;28;20465;-60
2022/10/08 13:19:18;;;;;;;2.53;1.70;;;13.50;99.90;;;;;;5016369;28;20446;-61
2022/10/08 13:21:54;;;;;;;3.17;2.57;;;13.60;99.90;;;;;;5015895;28;20957;-60
2022/10/08 13:24:36;;;;;;;2.70;1.37;;;13.70;99.90;;;;;;5016447;28;20422;-61
2022/10/08 13:27:05;;;;;;;3.50;1.37;;;13.80;99.90;;;;;;5016383;28;20474;-59
2022/10/08 13:29:34;;;;;;;3.37;1.67;;;13.90;99.90;;;;;;5016026;28;20504;-62
2022/10/08 13:32:05;;;;;;;2.73;1.50;;;14.00;99.90;;;;;;5016589;28;20559;-60
2022/10/08 13:34:34;;;;;;;5.53;1.87;;;14.10;99.90;;;;;;5016438;28;20435;-60
2022/10/08 13:37:04;;;;;;;3.07;1.60;;;14.30;99.90;;;;;;5015657;28;20466;-60
2022/10/08 13:39:35;;;;;;;2.27;1.60;;;14.50;99.90;;;;;;5015622;28;20454;-61